Walker Springs, Alabama
Current Conditions -  °F | °C
As of 3:53 AM on Saturday 20 Dec 2014 (Local Time) from KGZH Reporting Station
Overcast Overcast  
Wind Chill: 47°   Ceiling: 700
Heat Index: 47°   Visibility: 8mi
Dew Point: 45°   Wind: 3mph
Humidity: 93%   Direction: 350°N
Pressure: 30.12"   Gusts: NA
Location:  31.54°N, 87.79°W
Report Text: KGZH 200953Z AUTO 35003KT 8SM OVC007 08/07 A3012 RMK AO2 RAE51 CIG 004V009 SLP197 P0003 T00830072
Loading
Personal Weather Stations






























Interactive Weather Map New forecast layout! Learn more

10-Day Weather Forecast

Advertisements
Track Severe Weather on mobile